Bogucar, Russia
Current Conditions -  °F | °C
As of 5:30 AM on Friday 21 Nov 2014 (Local Time) from UUOO Reporting Station
Clear Clear  
Wind Chill: 18°   Ceiling: Unl
Heat Index: 18°   Visibility: 6mi
Dew Point: 14°   Wind: 2mph
Humidity: 86%   Direction: NA
Pressure: 30.53"   Gusts: NA
Location:  49.93°N, 40.57°E
Report Text: UUOO 210230Z VRB01MPS CAVOK M08/M10 Q1034 NOSIG RMK 12090070
Loading
Personal Weather Stations






























Interactive Weather Map New forecast layout! Learn more

10-Day Weather Forecast

Advertisements
Track Severe Weather on mobile